Time;durP1;ratioP1;P1;durP2;ratioP2;P2;SDS_P1;SDS_P2;PMS_P1;PMS_P2;Temp;Humidity;BMP_temperature;BMP_pressure;BME280_temperature;BME280_humidity;BME280_pressure;Samples;Min_cycle;Max_cycle;Signal;HPM_P1;HPM_P2
2022/09/09 00:02:01;;;;;;;0.95;0.85;;;22.70;69.80;;;;;;5020164;28;20685;-70
2022/09/09 00:04:34;;;;;;;0.60;0.60;;;22.80;69.90;;;;;;5020790;28;20705;-70
2022/09/09 00:07:17;;;;;;;1.00;0.85;;;22.80;69.90;;;;;;5020718;28;20181;-70
2022/09/09 00:10:03;;;;;;;2.03;0.80;;;22.70;69.80;;;;;;5036144;28;20191;-70
2022/09/09 00:13:18;;;;;;;2.08;0.93;;;22.70;69.80;;;;;;5020963;28;20259;-70
2022/09/09 00:16:07;;;;;;;0.98;0.88;;;22.70;69.90;;;;;;5036911;28;20679;-70
2022/09/09 00:19:01;;;;;;;1.02;0.85;;;22.70;69.80;;;;;;5019453;28;20203;-70
2022/09/09 00:21:43;;;;;;;0.80;0.70;;;22.70;69.80;;;;;;5005344;28;20295;-70
2022/09/09 00:24:45;;;;;;;2.22;0.80;;;22.70;69.80;;;;;;5023729;28;20244;-70
2022/09/09 00:27:47;;;;;;;0.88;0.77;;;22.80;69.90;;;;;;5022618;28;20190;-70
2022/09/09 00:30:22;;;;;;;1.38;0.80;;;22.70;69.70;;;;;;5022936;28;20210;-70
2022/09/09 00:33:01;;;;;;;0.93;0.80;;;22.70;69.80;;;;;;5022638;28;20197;-70
2022/09/09 00:35:39;;;;;;;0.93;0.80;;;22.70;69.80;;;;;;5023195;28;20183;-70
2022/09/09 00:38:18;;;;;;;1.10;0.90;;;22.70;69.90;;;;;;5024183;28;20182;-70
2022/09/09 00:41:01;;;;;;;1.33;0.93;;;22.70;69.80;;;;;;5039787;28;20206;-70
2022/09/09 00:43:35;;;;;;;0.63;0.57;;;22.70;69.90;;;;;;5023617;28;20181;-70
2022/09/09 00:46:20;;;;;;;0.95;0.60;;;22.70;69.80;;;;;;5023428;28;20179;-70
2022/09/09 00:49:17;;;;;;;0.85;0.70;;;22.70;69.70;;;;;;5022888;28;20179;-70
2022/09/09 00:52:43;;;;;;;0.68;0.60;;;22.70;69.80;;;;;;5022646;28;20250;-70
2022/09/09 00:55:32;;;;;;;0.98;0.88;;;22.70;69.90;;;;;;5017971;28;20195;-71
2022/09/09 00:57:58;;;;;;;1.00;0.63;;;22.70;69.80;;;;;;5022634;28;20278;-70
2022/09/09 01:00:31;;;;;;;0.80;0.80;;;22.70;69.80;;;;;;5020929;28;20203;-70
2022/09/09 01:03:24;;;;;;;1.27;0.60;;;22.70;69.90;;;;;;5023137;28;20246;-70
2022/09/09 01:06:11;;;;;;;0.82;0.80;;;22.70;69.80;;;;;;5023135;28;20191;-70
2022/09/09 01:08:58;;;;;;;0.70;0.70;;;22.70;69.90;;;;;;5038765;28;20176;-70
2022/09/09 01:11:31;;;;;;;0.70;0.70;;;22.70;69.90;;;;;;5022741;28;20278;-70
2022/09/09 01:14:36;;;;;;;0.90;0.90;;;22.70;69.90;;;;;;5023228;28;20225;-70
2022/09/09 01:17:32;;;;;;;0.80;0.80;;;22.70;69.80;;;;;;5023490;28;20218;-70
2022/09/09 01:20:25;;;;;;;0.70;0.60;;;22.70;69.80;;;;;;5038621;28;20206;-70
2022/09/09 01:23:16;;;;;;;0.65;0.65;;;22.70;69.80;;;;;;5039150;28;20175;-70
2022/09/09 01:26:25;;;;;;;1.02;0.70;;;22.70;69.90;;;;;;5023207;28;20191;-70
2022/09/09 01:28:53;;;;;;;0.77;0.77;;;22.70;69.80;;;;;;5021710;28;20197;-70
2022/09/09 01:31:41;;;;;;;1.08;0.70;;;22.70;69.80;;;;;;5022354;28;20207;-70
2022/09/09 01:34:15;;;;;;;0.80;0.80;;;22.70;69.90;;;;;;5022373;28;20214;-70
2022/09/09 01:37:01;;;;;;;0.77;0.70;;;22.70;69.80;;;;;;5021910;28;20210;-70
2022/09/09 01:39:28;;;;;;;1.30;0.80;;;22.60;69.70;;;;;;5038672;28;20167;-70
2022/09/09 01:42:02;;;;;;;0.75;0.75;;;22.60;69.60;;;;;;5023074;28;20172;-70
2022/09/09 01:44:30;;;;;;;1.13;0.90;;;22.60;69.70;;;;;;5038866;28;20193;-71
2022/09/09 01:46:56;;;;;;;0.85;0.70;;;22.60;69.70;;;;;;5022194;28;20190;-70
2022/09/09 01:49:22;;;;;;;0.50;0.50;;;22.60;69.60;;;;;;5017910;28;20188;-70
2022/09/09 01:51:54;;;;;;;1.15;0.85;;;22.60;69.60;;;;;;5019185;28;20238;-70
2022/09/09 01:54:32;;;;;;;0.75;0.70;;;22.60;69.60;;;;;;5003323;28;20195;-70
2022/09/09 01:57:24;;;;;;;2.15;0.80;;;22.60;69.70;;;;;;5002711;28;20221;-70
2022/09/09 02:00:09;;;;;;;1.00;0.90;;;22.70;69.80;;;;;;5001711;28;20212;-70
2022/09/09 02:03:06;;;;;;;0.75;0.70;;;22.70;69.90;;;;;;5034995;28;20232;-70
2022/09/09 02:06:31;;;;;;;1.08;0.70;;;22.60;69.70;;;;;;5004394;28;20226;-70
2022/09/09 02:09:11;;;;;;;0.77;0.70;;;22.60;69.70;;;;;;5002848;28;20223;-70
2022/09/09 02:11:38;;;;;;;0.95;0.70;;;22.60;69.70;;;;;;5017629;28;20211;-70
2022/09/09 02:14:33;;;;;;;1.55;0.80;;;22.60;69.70;;;;;;5018967;28;20238;-70
2022/09/09 02:17:10;;;;;;;0.77;0.77;;;22.60;69.80;;;;;;5018536;28;20215;-70
2022/09/09 02:20:04;;;;;;;0.70;0.68;;;22.60;69.70;;;;;;5017899;28;20212;-70
2022/09/09 02:22:45;;;;;;;0.70;0.68;;;22.60;69.60;;;;;;5003782;28;20176;-70
2022/09/09 02:25:18;;;;;;;0.65;0.50;;;22.60;69.70;;;;;;5035380;28;20172;-71
2022/09/09 02:27:49;;;;;;;0.50;0.50;;;22.60;69.70;;;;;;5018579;28;20251;-70
2022/09/09 02:30:17;;;;;;;0.52;0.52;;;22.60;69.70;;;;;;5021164;28;20223;-70
2022/09/09 02:32:56;;;;;;;0.77;0.70;;;22.60;69.80;;;;;;5023307;28;20175;-70
2022/09/09 02:35:26;;;;;;;1.00;0.63;;;22.60;69.70;;;;;;5020870;28;20183;-71
2022/09/09 02:37:59;;;;;;;1.05;0.70;;;22.60;69.70;;;;;;5021501;28;20215;-70
2022/09/09 02:40:25;;;;;;;0.70;0.70;;;22.60;69.70;;;;;;5019987;28;20252;-70
2022/09/09 02:42:59;;;;;;;1.08;0.70;;;22.60;69.70;;;;;;5021958;28;20279;-70
2022/09/09 02:45:39;;;;;;;0.80;0.80;;;22.60;69.70;;;;;;5020680;28;20186;-70
2022/09/09 02:48:34;;;;;;;0.70;0.57;;;22.60;69.70;;;;;;5021010;28;20179;-70
2022/09/09 02:51:21;;;;;;;0.95;0.52;;;22.60;69.70;;;;;;5037786;28;20230;-70
2022/09/09 02:54:16;;;;;;;0.57;0.57;;;22.60;69.70;;;;;;5037181;28;20191;-70
2022/09/09 02:56:54;;;;;;;1.10;0.70;;;22.60;69.70;;;;;;5038683;28;20245;-70
2022/09/09 02:59:26;;;;;;;1.23;0.75;;;22.60;69.70;;;;;;5022617;28;20191;-70
2022/09/09 03:01:53;;;;;;;0.52;0.52;;;22.60;69.70;;;;;;5037131;28;20187;-70
2022/09/09 03:04:20;;;;;;;0.50;0.50;;;22.60;69.70;;;;;;5037905;28;20199;-70
2022/09/09 03:06:46;;;;;;;0.73;0.52;;;22.60;69.60;;;;;;5037443;28;20241;-70
2022/09/09 03:09:18;;;;;;;1.00;0.63;;;22.60;69.70;;;;;;5037476;28;20187;-70
2022/09/09 03:11:43;;;;;;;0.60;0.60;;;22.60;69.70;;;;;;5037171;28;20214;-70
2022/09/09 03:14:11;;;;;;;1.25;0.63;;;22.60;69.70;;;;;;5036590;28;20241;-70
2022/09/09 03:16:37;;;;;;;0.65;0.65;;;22.50;69.60;;;;;;5036523;28;20218;-70
2022/09/09 03:19:03;;;;;;;0.98;0.60;;;22.60;69.80;;;;;;5053081;28;20191;-70
2022/09/09 03:21:29;;;;;;;0.60;0.60;;;22.60;69.80;;;;;;5036755;28;20205;-70
2022/09/09 03:23:57;;;;;;;1.20;0.75;;;22.60;69.80;;;;;;5054691;28;20186;-70
2022/09/09 03:26:23;;;;;;;0.85;0.60;;;22.60;69.80;;;;;;5040404;28;20213;-70
2022/09/09 03:28:51;;;;;;;0.73;0.73;;;22.60;69.70;;;;;;5038715;28;20183;-70
2022/09/09 03:31:19;;;;;;;1.05;0.70;;;22.50;69.70;;;;;;5040351;28;20203;-70
2022/09/09 03:33:45;;;;;;;0.60;0.60;;;22.50;69.70;;;;;;5040839;28;20191;-70
2022/09/09 03:36:14;;;;;;;0.65;0.60;;;22.50;69.70;;;;;;5040680;28;20211;-70
2022/09/09 03:38:41;;;;;;;1.05;0.80;;;22.60;69.80;;;;;;5040396;28;20195;-70
2022/09/09 03:41:08;;;;;;;0.57;0.50;;;22.60;69.80;;;;;;5040367;28;20271;-70
2022/09/09 03:43:34;;;;;;;1.15;0.70;;;22.50;69.70;;;;;;5037889;28;20179;-70
2022/09/09 03:46:00;;;;;;;1.00;0.90;;;22.50;69.70;;;;;;5020011;28;20268;-70
2022/09/09 03:48:28;;;;;;;1.15;0.60;;;22.50;69.60;;;;;;5020441;28;20180;-70
2022/09/09 03:51:00;;;;;;;0.65;0.65;;;22.50;69.60;;;;;;5003518;28;20718;-70
2022/09/09 03:53:27;;;;;;;0.60;0.60;;;22.50;69.70;;;;;;5020573;28;20180;-70
2022/09/09 03:55:56;;;;;;;0.75;0.50;;;22.50;69.60;;;;;;5020170;28;20216;-70
2022/09/09 03:58:26;;;;;;;0.75;0.60;;;22.50;69.70;;;;;;5020517;28;20164;-70
2022/09/09 04:00:54;;;;;;;0.70;0.70;;;22.50;69.60;;;;;;5002867;28;20206;-70
2022/09/09 04:03:20;;;;;;;0.40;0.40;;;22.50;69.70;;;;;;5003925;28;20180;-70
2022/09/09 04:05:49;;;;;;;0.98;0.60;;;22.50;69.70;;;;;;5020195;28;20203;-70
2022/09/09 04:08:15;;;;;;;0.50;0.50;;;22.50;70.40;;;;;;5003363;28;20196;-71
2022/09/09 04:10:41;;;;;;;0.57;0.57;;;22.50;69.70;;;;;;5019646;28;20211;-71
2022/09/09 04:13:08;;;;;;;0.50;0.50;;;22.60;69.80;;;;;;5003831;28;20192;-70
2022/09/09 04:15:35;;;;;;;0.77;0.60;;;22.50;69.70;;;;;;5003845;28;20283;-70
2022/09/09 04:18:01;;;;;;;0.70;0.68;;;22.50;69.60;;;;;;5003376;28;20180;-70
2022/09/09 04:20:27;;;;;;;0.55;0.50;;;22.50;69.70;;;;;;5018923;28;20208;-70
2022/09/09 04:22:53;;;;;;;0.68;0.68;;;22.50;69.70;;;;;;5020320;28;20184;-70
2022/09/09 04:25:18;;;;;;;0.70;0.70;;;22.50;69.70;;;;;;5002816;28;20192;-70
2022/09/09 04:27:44;;;;;;;0.50;0.50;;;22.50;69.70;;;;;;5019014;28;20180;-70
2022/09/09 04:30:12;;;;;;;0.75;0.70;;;22.50;69.70;;;;;;5035504;28;20546;-70
2022/09/09 04:32:39;;;;;;;0.70;0.70;;;22.50;69.70;;;;;;5035640;28;20187;-70
2022/09/09 04:35:05;;;;;;;0.50;0.50;;;22.50;69.60;;;;;;5018861;28;20181;-70
2022/09/09 04:37:31;;;;;;;1.38;0.70;;;22.60;69.80;;;;;;5039004;28;20238;-70
2022/09/09 04:40:01;;;;;;;0.40;0.40;;;22.50;69.70;;;;;;5023053;28;20206;-70
2022/09/09 04:42:30;;;;;;;0.57;0.57;;;22.50;69.70;;;;;;5039589;28;20190;-70
2022/09/09 04:44:56;;;;;;;0.40;0.40;;;22.50;69.70;;;;;;5022020;28;20175;-70
2022/09/09 04:47:22;;;;;;;1.55;0.70;;;22.50;69.70;;;;;;5023043;28;20245;-70
2022/09/09 04:49:48;;;;;;;0.52;0.50;;;22.50;69.80;;;;;;5022569;28;20207;-70
2022/09/09 04:52:17;;;;;;;1.35;0.60;;;22.50;69.80;;;;;;5022833;28;20202;-70
2022/09/09 04:54:44;;;;;;;0.80;0.80;;;22.50;69.80;;;;;;5022980;28;20187;-70
2022/09/09 04:57:11;;;;;;;0.50;0.50;;;22.50;69.90;;;;;;5018172;28;20200;-70
2022/09/09 04:59:37;;;;;;;0.60;0.52;;;22.50;69.90;;;;;;5002861;28;20180;-70
2022/09/09 05:02:03;;;;;;;0.60;0.60;;;22.50;69.90;;;;;;5036485;28;20726;-70
2022/09/09 05:04:29;;;;;;;0.50;0.50;;;22.50;70.00;;;;;;5019506;28;20574;-70
2022/09/09 05:06:55;;;;;;;1.08;0.70;;;22.50;70.00;;;;;;5035764;28;20188;-70
2022/09/09 05:09:23;;;;;;;0.60;0.60;;;22.50;70.00;;;;;;5002658;28;20199;-69
2022/09/09 05:11:51;;;;;;;1.00;0.60;;;22.50;69.90;;;;;;5019995;28;20187;-70
2022/09/09 05:14:30;;;;;;;1.40;0.60;;;22.50;70.00;;;;;;5018755;28;20188;-70
2022/09/09 05:16:57;;;;;;;1.02;0.80;;;22.50;70.00;;;;;;5033612;28;20212;-70
2022/09/09 05:19:24;;;;;;;0.60;0.60;;;22.50;70.00;;;;;;5034942;28;20202;-70
2022/09/09 05:21:51;;;;;;;0.60;0.60;;;22.50;70.00;;;;;;5035890;28;20256;-70
2022/09/09 05:24:23;;;;;;;0.82;0.68;;;22.50;70.00;;;;;;5035597;28;20330;-71
2022/09/09 05:26:51;;;;;;;0.65;0.60;;;22.50;70.00;;;;;;5052802;28;20282;-69
2022/09/09 05:29:19;;;;;;;0.60;0.60;;;22.50;70.00;;;;;;5037331;28;20188;-70
2022/09/09 05:31:46;;;;;;;0.63;0.60;;;22.50;70.00;;;;;;5052922;28;20254;-70
2022/09/09 05:34:16;;;;;;;0.80;0.80;;;22.50;70.00;;;;;;5021577;28;20179;-70
2022/09/09 05:36:42;;;;;;;1.05;0.70;;;22.50;70.00;;;;;;5019997;28;20295;-70
2022/09/09 05:39:08;;;;;;;0.60;0.60;;;22.50;70.00;;;;;;5037498;28;20184;-70
2022/09/09 05:41:35;;;;;;;0.93;0.70;;;22.50;70.00;;;;;;5037935;28;20210;-70
2022/09/09 05:44:03;;;;;;;0.60;0.60;;;22.50;70.00;;;;;;5017061;28;20187;-70
2022/09/09 05:46:32;;;;;;;0.75;0.57;;;22.50;70.00;;;;;;5005103;28;20207;-70
2022/09/09 05:48:58;;;;;;;0.40;0.40;;;22.50;70.00;;;;;;5019100;28;20184;-69
2022/09/09 05:51:32;;;;;;;0.65;0.65;;;22.50;70.00;;;;;;5004521;28;20208;-70
2022/09/09 05:54:02;;;;;;;1.15;0.80;;;22.50;70.10;;;;;;5004090;28;20180;-71
2022/09/09 05:56:32;;;;;;;0.65;0.65;;;22.50;70.10;;;;;;5020485;28;20212;-69
2022/09/09 05:58:59;;;;;;;0.73;0.60;;;22.50;70.10;;;;;;5003455;28;20243;-70
2022/09/09 06:01:32;;;;;;;0.77;0.70;;;22.50;70.20;;;;;;5025552;28;20201;-71
2022/09/09 06:04:00;;;;;;;0.70;0.70;;;22.50;70.10;;;;;;5039140;28;20189;-70
2022/09/09 06:06:36;;;;;;;1.13;0.75;;;22.50;70.20;;;;;;5038680;28;20197;-70
2022/09/09 06:09:06;;;;;;;2.05;1.00;;;22.50;70.20;;;;;;5014208;28;20213;-71
2022/09/09 06:11:37;;;;;;;0.85;0.80;;;22.50;70.10;;;;;;5026443;28;20274;-71
2022/09/09 06:14:04;;;;;;;0.85;0.80;;;22.50;70.20;;;;;;5038599;28;20192;-71
2022/09/09 06:16:32;;;;;;;0.52;0.52;;;22.50;70.20;;;;;;5055811;28;20203;-71
2022/09/09 06:18:59;;;;;;;1.05;0.57;;;22.50;70.20;;;;;;5020247;28;20194;-70
2022/09/09 06:21:34;;;;;;;0.80;0.70;;;22.60;70.30;;;;;;5039704;28;20199;-71
2022/09/09 06:24:01;;;;;;;0.60;0.60;;;22.60;70.30;;;;;;5017495;28;20704;-71
2022/09/09 06:26:32;;;;;;;0.88;0.70;;;22.60;70.30;;;;;;5038128;28;20207;-72
2022/09/09 06:29:03;;;;;;;0.65;0.65;;;22.50;70.30;;;;;;5037105;28;20209;-70
2022/09/09 06:31:33;;;;;;;0.63;0.60;;;22.50;70.30;;;;;;5054105;28;20203;-70
2022/09/09 06:34:06;;;;;;;0.70;0.70;;;22.60;70.40;;;;;;5032508;28;20180;-70
2022/09/09 06:36:38;;;;;;;1.33;0.73;;;22.50;70.30;;;;;;5020807;28;20214;-70
2022/09/09 06:39:06;;;;;;;1.73;1.02;;;22.60;70.50;;;;;;5022850;28;20179;-69
2022/09/09 06:41:33;;;;;;;1.52;0.80;;;22.60;70.50;;;;;;5036808;28;20199;-70
2022/09/09 06:44:01;;;;;;;0.85;0.75;;;22.60;70.50;;;;;;5053555;28;20175;-70
2022/09/09 06:46:38;;;;;;;1.42;0.85;;;22.60;70.50;;;;;;5020858;28;20179;-70
2022/09/09 06:49:04;;;;;;;1.23;0.60;;;22.60;70.50;;;;;;5022259;28;20221;-70
2022/09/09 06:51:35;;;;;;;1.05;0.80;;;22.60;70.50;;;;;;5021474;28;20211;-70
2022/09/09 06:54:04;;;;;;;0.90;0.90;;;22.60;70.50;;;;;;5020157;28;20191;-70
2022/09/09 06:56:40;;;;;;;0.90;0.82;;;22.60;70.50;;;;;;5019528;28;20277;-70
2022/09/09 06:59:10;;;;;;;0.80;0.80;;;22.60;70.50;;;;;;5021355;28;20179;-70
2022/09/09 07:01:40;;;;;;;2.03;0.90;;;22.60;70.50;;;;;;5020736;28;20299;-70
2022/09/09 07:04:10;;;;;;;0.98;0.70;;;22.60;70.50;;;;;;5020272;28;20210;-70
2022/09/09 07:06:45;;;;;;;2.65;0.85;;;22.60;70.60;;;;;;5020222;28;20212;-70
2022/09/09 07:09:16;;;;;;;1.52;0.75;;;22.70;70.70;;;;;;5019985;28;20186;-70
2022/09/09 07:11:52;;;;;;;0.60;0.60;;;22.60;70.50;;;;;;5020054;28;20254;-70
2022/09/09 07:14:19;;;;;;;0.60;0.60;;;22.60;70.50;;;;;;5020472;28;20183;-70
2022/09/09 07:16:48;;;;;;;0.63;0.63;;;22.60;70.60;;;;;;5003820;28;20208;-70
2022/09/09 07:19:16;;;;;;;0.80;0.80;;;22.60;70.60;;;;;;5019674;28;20732;-70
2022/09/09 07:21:43;;;;;;;1.02;0.80;;;22.60;70.60;;;;;;5020303;28;20294;-70
2022/09/09 07:24:12;;;;;;;1.17;0.88;;;22.70;70.80;;;;;;5019813;28;20180;-70
2022/09/09 07:26:40;;;;;;;0.75;0.70;;;22.60;70.60;;;;;;5019717;28;20672;-70
2022/09/09 07:29:08;;;;;;;1.08;0.60;;;22.70;70.80;;;;;;5019343;28;20188;-70
2022/09/09 07:31:38;;;;;;;1.73;0.80;;;22.60;70.70;;;;;;5019692;28;20203;-70
2022/09/09 07:34:08;;;;;;;1.15;0.75;;;22.60;70.70;;;;;;5004866;28;20215;-70
2022/09/09 07:36:37;;;;;;;1.38;0.70;;;22.70;70.90;;;;;;5020063;28;20212;-70
2022/09/09 07:39:09;;;;;;;1.15;1.08;;;22.60;70.80;;;;;;5019487;28;20207;-70
2022/09/09 07:41:46;;;;;;;1.00;0.90;;;22.70;70.90;;;;;;5003507;28;20203;-70
2022/09/09 07:44:24;;;;;;;0.95;0.80;;;22.70;71.00;;;;;;5020763;28;20313;-70
2022/09/09 07:47:10;;;;;;;0.85;0.70;;;22.70;70.90;;;;;;5019044;28;20192;-70
2022/09/09 07:49:41;;;;;;;0.85;0.85;;;22.70;70.80;;;;;;5034849;28;20191;-70
2022/09/09 07:52:07;;;;;;;1.92;0.90;;;22.70;70.80;;;;;;5036462;28;20188;-70
2022/09/09 07:54:35;;;;;;;1.38;0.80;;;22.70;70.90;;;;;;5036407;28;20184;-70
2022/09/09 07:57:04;;;;;;;1.20;0.70;;;22.80;70.90;;;;;;5004024;28;20208;-70
2022/09/09 07:59:31;;;;;;;1.10;1.00;;;22.70;71.00;;;;;;5018705;28;20242;-70
2022/09/09 08:01:58;;;;;;;1.27;0.70;;;22.70;71.10;;;;;;5036836;28;20180;-70
2022/09/09 08:04:28;;;;;;;0.70;0.65;;;22.70;71.00;;;;;;5004485;28;20212;-70
2022/09/09 08:07:00;;;;;;;1.30;0.77;;;22.70;71.10;;;;;;5019962;28;20191;-70
2022/09/09 08:09:28;;;;;;;0.90;0.90;;;22.70;71.20;;;;;;5002713;28;20261;-70
2022/09/09 08:12:00;;;;;;;1.30;0.80;;;22.70;71.10;;;;;;5035249;28;20198;-70
2022/09/09 08:14:27;;;;;;;1.20;0.80;;;22.80;71.10;;;;;;5036819;28;20250;-70
2022/09/09 08:16:54;;;;;;;1.23;0.70;;;22.70;71.10;;;;;;5019118;28;20223;-70
2022/09/09 08:19:23;;;;;;;1.27;0.98;;;22.80;71.10;;;;;;5035078;28;20283;-70
2022/09/09 08:21:49;;;;;;;1.20;0.80;;;22.80;71.10;;;;;;5003253;28;20200;-70
2022/09/09 08:24:16;;;;;;;1.02;0.93;;;22.80;71.10;;;;;;5036445;28;20176;-70
2022/09/09 08:26:51;;;;;;;1.42;0.65;;;22.70;71.10;;;;;;5035395;28;20569;-70
2022/09/09 08:29:20;;;;;;;1.80;0.90;;;22.80;71.10;;;;;;5034744;28;20190;-70
2022/09/09 08:31:55;;;;;;;0.90;0.70;;;22.80;71.20;;;;;;5019536;28;20211;-70
2022/09/09 08:34:23;;;;;;;1.13;0.70;;;22.80;71.20;;;;;;5003879;28;20198;-70
2022/09/09 08:36:51;;;;;;;2.38;0.90;;;22.80;71.20;;;;;;5003666;28;20266;-70
2022/09/09 08:39:22;;;;;;;0.77;0.70;;;22.80;71.10;;;;;;5018665;28;20540;-70
2022/09/09 08:42:21;;;;;;;1.25;0.90;;;22.80;71.20;;;;;;5020783;28;20214;-70
2022/09/09 08:45:12;;;;;;;1.70;1.08;;;22.80;71.20;;;;;;5023308;28;20187;-70
2022/09/09 08:48:08;;;;;;;0.98;0.60;;;22.80;71.20;;;;;;5038904;28;20193;-70
2022/09/09 08:50:41;;;;;;;1.58;0.80;;;22.80;71.10;;;;;;5038821;28;20211;-70
2022/09/09 08:53:24;;;;;;;1.25;1.02;;;22.80;71.20;;;;;;5023387;28;20187;-70
2022/09/09 08:56:11;;;;;;;0.80;0.70;;;22.80;71.20;;;;;;5022987;28;20219;-70
2022/09/09 08:58:50;;;;;;;1.65;0.73;;;22.80;71.10;;;;;;5023310;28;20209;-70
2022/09/09 09:01:56;;;;;;;0.80;0.80;;;22.80;71.30;;;;;;5022306;28;20233;-70
2022/09/09 09:05:05;;;;;;;1.05;0.80;;;22.80;71.10;;;;;;5005930;28;20219;-70
2022/09/09 09:07:49;;;;;;;1.63;0.90;;;22.80;71.10;;;;;;5022773;28;20183;-70
2022/09/09 09:10:47;;;;;;;2.30;0.70;;;22.80;71.20;;;;;;5038398;28;20207;-70
2022/09/09 09:14:00;;;;;;;1.30;0.80;;;22.80;71.20;;;;;;5032612;28;20755;-70
2022/09/09 09:16:40;;;;;;;1.73;0.70;;;22.80;71.10;;;;;;5007749;28;20237;-70
2022/09/09 09:19:16;;;;;;;0.63;0.63;;;22.90;71.20;;;;;;5021277;28;20191;-70
2022/09/09 09:21:50;;;;;;;1.23;0.73;;;22.80;71.00;;;;;;5038447;28;20209;-70
2022/09/09 09:24:32;;;;;;;0.88;0.70;;;22.80;71.00;;;;;;5022125;28;20274;-70
2022/09/09 09:27:11;;;;;;;1.92;0.82;;;22.80;71.00;;;;;;5037631;28;20742;-70
2022/09/09 09:29:41;;;;;;;1.23;0.80;;;22.90;71.20;;;;;;5038020;28;20187;-70
2022/09/09 09:32:16;;;;;;;3.50;1.23;;;22.80;71.20;;;;;;5038065;28;20187;-70
2022/09/09 09:34:42;;;;;;;1.38;1.02;;;22.80;71.20;;;;;;5037985;28;20190;-70
2022/09/09 09:37:28;;;;;;;1.40;0.85;;;22.80;71.10;;;;;;5035526;28;20272;-70
2022/09/09 09:39:54;;;;;;;0.70;0.70;;;22.90;71.20;;;;;;5001182;28;20199;-70
2022/09/09 09:42:20;;;;;;;1.02;0.82;;;22.90;71.50;;;;;;5002215;28;20191;-70
2022/09/09 09:44:47;;;;;;;1.35;0.90;;;22.90;71.30;;;;;;5001734;28;20180;-70
2022/09/09 09:47:23;;;;;;;1.35;0.80;;;22.90;71.30;;;;;;5003363;28;20191;-70
2022/09/09 09:50:02;;;;;;;1.85;1.00;;;22.90;71.30;;;;;;5003671;28;20204;-70
2022/09/09 09:52:35;;;;;;;1.88;0.90;;;22.90;71.30;;;;;;5003302;28;20192;-70
2022/09/09 09:55:12;;;;;;;1.08;0.82;;;22.90;71.30;;;;;;5018153;28;20190;-70
2022/09/09 09:57:38;;;;;;;1.95;0.80;;;22.90;71.30;;;;;;5002207;28;20216;-70
2022/09/09 10:00:22;;;;;;;2.13;1.00;;;22.90;71.20;;;;;;5002167;28;20207;-70
2022/09/09 10:03:00;;;;;;;0.60;0.60;;;22.90;71.20;;;;;;5003463;28;20180;-70
2022/09/09 10:05:31;;;;;;;1.30;0.93;;;22.90;71.30;;;;;;5018381;28;20187;-70
2022/09/09 10:08:04;;;;;;;1.77;0.90;;;22.90;71.30;;;;;;5018386;28;20190;-70
2022/09/09 10:10:39;;;;;;;2.53;0.88;;;22.90;71.20;;;;;;5001549;28;20208;-70
2022/09/09 10:13:28;;;;;;;0.70;0.70;;;22.90;71.20;;;;;;5002250;28;20208;-70
2022/09/09 10:16:33;;;;;;;3.40;0.88;;;22.90;71.00;;;;;;5019830;28;20220;-70
2022/09/09 10:19:12;;;;;;;0.80;0.80;;;22.90;71.10;;;;;;5017898;28;20220;-70
2022/09/09 10:21:55;;;;;;;1.75;0.80;;;22.90;71.10;;;;;;5001431;28;20204;-70
2022/09/09 10:25:02;;;;;;;1.20;0.90;;;22.90;71.20;;;;;;5034728;28;20187;-70
2022/09/09 10:27:31;;;;;;;0.90;0.75;;;22.90;72.10;;;;;;5001840;28;20626;-70
2022/09/09 10:30:19;;;;;;;0.95;0.63;;;22.90;71.30;;;;;;5003520;28;20212;-71
2022/09/09 10:33:10;;;;;;;1.25;0.80;;;22.90;71.10;;;;;;5035211;28;20203;-70
2022/09/09 10:35:52;;;;;;;1.08;0.77;;;22.90;70.80;;;;;;5036243;28;20212;-70
2022/09/09 10:38:38;;;;;;;1.00;0.75;;;22.90;70.70;;;;;;5003721;28;20558;-70
2022/09/09 10:41:17;;;;;;;1.55;0.63;;;22.90;70.80;;;;;;5019408;28;20588;-70
2022/09/09 10:44:24;;;;;;;1.02;0.70;;;22.90;70.90;;;;;;5003021;28;20249;-70
2022/09/09 10:47:34;;;;;;;2.45;0.80;;;22.90;70.70;;;;;;4963397;28;20207;-70
2022/09/09 10:51:03;;;;;;;1.00;0.80;;;22.90;70.80;;;;;;5034070;28;20242;-70
2022/09/09 10:53:56;;;;;;;1.30;0.93;;;22.90;70.70;;;;;;5001823;28;20191;-70
2022/09/09 10:56:23;;;;;;;1.30;0.80;;;22.90;70.50;;;;;;5003260;28;20224;-71
2022/09/09 10:59:16;;;;;;;0.60;0.60;;;22.90;70.30;;;;;;5019696;28;20216;-70
2022/09/09 11:01:52;;;;;;;2.30;0.82;;;22.90;70.40;;;;;;5003337;28;20210;-71
2022/09/09 11:04:35;;;;;;;2.85;0.82;;;22.90;70.30;;;;;;5019245;28;20203;-70
2022/09/09 11:07:10;;;;;;;0.70;0.70;;;23.00;70.20;;;;;;5019613;28;20219;-70
2022/09/09 11:09:48;;;;;;;1.08;0.70;;;22.90;70.00;;;;;;5018639;28;20183;-70
2022/09/09 11:12:20;;;;;;;1.55;0.90;;;22.90;70.10;;;;;;5003168;28;20191;-70
2022/09/09 11:15:01;;;;;;;0.82;0.50;;;22.90;70.10;;;;;;5004826;28;20194;-70
2022/09/09 11:17:40;;;;;;;0.65;0.65;;;22.90;69.90;;;;;;5039038;28;20211;-71
2022/09/09 11:20:12;;;;;;;1.40;0.68;;;22.90;69.90;;;;;;5022321;28;20203;-70
2022/09/09 11:22:53;;;;;;;0.93;0.65;;;22.90;69.70;;;;;;5038919;28;20198;-70
2022/09/09 11:25:28;;;;;;;1.90;0.80;;;23.00;69.90;;;;;;5023206;28;20191;-70
2022/09/09 11:28:27;;;;;;;0.73;0.60;;;22.90;69.90;;;;;;5022592;28;20187;-70
2022/09/09 11:31:32;;;;;;;0.65;0.55;;;23.00;69.90;;;;;;5021507;28;20247;-71
2022/09/09 11:34:19;;;;;;;1.55;0.68;;;22.90;69.60;;;;;;5022977;28;20282;-71
2022/09/09 11:37:21;;;;;;;0.98;0.60;;;23.00;69.60;;;;;;5022501;28;20215;-70
2022/09/09 11:40:19;;;;;;;0.85;0.73;;;22.90;69.50;;;;;;5021038;28;20211;-70
2022/09/09 11:42:49;;;;;;;1.15;0.85;;;22.90;69.30;;;;;;5038107;28;20188;-71
2022/09/09 11:45:29;;;;;;;0.90;0.68;;;22.90;70.30;;;;;;5024784;28;20179;-71
2022/09/09 11:48:01;;;;;;;1.45;0.68;;;22.90;70.00;;;;;;5028821;28;20664;-71
2022/09/09 11:50:37;;;;;;;1.08;0.70;;;23.00;69.60;;;;;;5023279;28;20204;-71
2022/09/09 11:53:22;;;;;;;2.03;0.63;;;22.90;69.60;;;;;;5023873;28;20194;-71
2022/09/09 11:56:06;;;;;;;0.80;0.80;;;22.90;69.20;;;;;;5022800;28;20192;-71
2022/09/09 11:58:58;;;;;;;1.63;0.68;;;22.90;69.20;;;;;;5022537;28;20176;-71
2022/09/09 12:01:41;;;;;;;0.93;0.60;;;22.90;68.90;;;;;;5021542;28;20224;-72
2022/09/09 12:04:42;;;;;;;0.70;0.65;;;22.90;68.80;;;;;;5021531;28;20172;-71
2022/09/09 12:07:08;;;;;;;1.70;0.55;;;22.90;68.80;;;;;;5020945;28;20190;-71
2022/09/09 12:09:44;;;;;;;0.70;0.70;;;22.90;68.30;;;;;;5021549;28;20192;-71
2022/09/09 12:12:13;;;;;;;0.73;0.50;;;22.90;68.40;;;;;;5005728;28;20202;-71
2022/09/09 12:14:43;;;;;;;1.73;0.57;;;22.90;68.70;;;;;;5022249;28;20275;-71
2022/09/09 12:17:14;;;;;;;1.40;0.60;;;22.90;68.70;;;;;;5022255;28;20220;-71
2022/09/09 12:19:40;;;;;;;1.02;0.70;;;22.90;68.40;;;;;;5020540;28;20196;-70
2022/09/09 12:22:50;;;;;;;2.10;0.90;;;23.00;68.40;;;;;;5021740;28;20238;-71
2022/09/09 12:25:28;;;;;;;0.68;0.68;;;22.90;68.50;;;;;;5022757;28;20188;-71
2022/09/09 12:28:03;;;;;;;0.93;0.80;;;22.90;68.00;;;;;;5006297;28;20206;-71
2022/09/09 12:30:51;;;;;;;1.10;0.70;;;22.90;67.80;;;;;;5021420;28;20203;-71
2022/09/09 12:33:19;;;;;;;0.93;0.80;;;22.90;68.00;;;;;;5020377;28;20188;-70
2022/09/09 12:35:54;;;;;;;1.38;0.75;;;22.90;68.10;;;;;;5022059;28;20188;-70
2022/09/09 12:38:41;;;;;;;0.63;0.50;;;22.90;68.10;;;;;;5036966;28;20187;-70
2022/09/09 12:41:24;;;;;;;1.13;0.60;;;23.00;68.00;;;;;;5021704;28;20261;-71
2022/09/09 12:43:51;;;;;;;0.80;0.50;;;23.00;68.10;;;;;;5038097;28;20183;-71
2022/09/09 12:46:43;;;;;;;2.00;0.90;;;23.00;67.60;;;;;;5024331;28;20183;-70
2022/09/09 12:49:27;;;;;;;1.08;0.63;;;22.90;67.80;;;;;;5019487;28;20199;-71
2022/09/09 12:51:53;;;;;;;0.80;0.70;;;22.90;67.80;;;;;;5023674;28;20183;-72
2022/09/09 12:54:20;;;;;;;1.52;0.70;;;23.00;68.10;;;;;;5025107;28;20187;-70
2022/09/09 12:56:48;;;;;;;0.65;0.65;;;22.90;67.40;;;;;;5021509;28;20241;-71
2022/09/09 12:59:35;;;;;;;0.93;0.63;;;22.90;67.40;;;;;;5023204;28;20277;-71
2022/09/09 13:02:01;;;;;;;1.58;1.00;;;22.90;67.40;;;;;;5025004;28;20187;-71
2022/09/09 13:04:27;;;;;;;1.05;0.70;;;23.00;67.70;;;;;;5018598;28;20281;-71
2022/09/09 13:06:52;;;;;;;0.82;0.55;;;22.90;67.60;;;;;;5021642;28;20309;-71
2022/09/09 13:09:19;;;;;;;3.13;0.90;;;22.90;67.80;;;;;;5039510;28;20191;-71
2022/09/09 13:11:56;;;;;;;1.05;0.77;;;23.00;68.10;;;;;;5026607;28;20602;-70
2022/09/09 13:14:34;;;;;;;1.65;0.73;;;23.00;68.00;;;;;;5022672;28;20187;-71
2022/09/09 13:17:04;;;;;;;1.80;0.90;;;22.90;67.20;;;;;;5023975;28;20257;-71
2022/09/09 13:19:36;;;;;;;0.60;0.60;;;22.90;67.20;;;;;;5023072;28;20194;-71
2022/09/09 13:22:21;;;;;;;2.28;0.65;;;23.00;67.70;;;;;;5039314;28;20183;-70
2022/09/09 13:24:47;;;;;;;1.50;0.80;;;22.90;67.60;;;;;;5023145;28;20175;-71
2022/09/09 13:27:33;;;;;;;0.98;0.82;;;23.00;67.60;;;;;;5021745;28;20206;-71
2022/09/09 13:30:00;;;;;;;2.67;0.60;;;22.90;67.60;;;;;;5038153;28;20207;-70
2022/09/09 13:32:28;;;;;;;1.75;0.98;;;22.90;67.50;;;;;;5023136;28;20191;-71
2022/09/09 13:35:02;;;;;;;1.35;0.68;;;22.90;67.80;;;;;;5023640;28;20195;-71